Time;durP1;ratioP1;P1;durP2;ratioP2;P2;SDS_P1;SDS_P2;PMS_P1;PMS_P2;Temp;Humidity;BMP_temperature;BMP_pressure;BME280_temperature;BME280_humidity;BME280_pressure;Samples;Min_cycle;Max_cycle;Signal;HPM_P1;HPM_P2
2022/07/12 00:02:01;;;;;;;3.30;2.00;;;16.70;99.90;;;;;;5029237;28;20186;-42
2022/07/12 00:04:27;;;;;;;2.20;2.00;;;16.60;99.90;;;;;;5029804;28;20191;-44
2022/07/12 00:06:53;;;;;;;2.07;1.50;;;16.60;99.90;;;;;;5028863;28;20444;-45
2022/07/12 00:09:18;;;;;;;2.40;1.87;;;16.50;99.90;;;;;;5029513;28;20193;-44
2022/07/12 00:11:44;;;;;;;2.27;2.07;;;16.50;99.90;;;;;;5035962;28;20599;-42
2022/07/12 00:14:10;;;;;;;1.90;1.80;;;16.40;99.90;;;;;;5029828;28;20220;-43
2022/07/12 00:16:36;;;;;;;2.00;1.80;;;16.40;99.90;;;;;;5029209;28;20276;-43
2022/07/12 00:19:02;;;;;;;2.40;1.93;;;16.40;99.90;;;;;;5029502;28;20939;-42
2022/07/12 00:21:28;;;;;;;2.30;2.10;;;16.30;99.90;;;;;;5043722;28;20883;-42
2022/07/12 00:23:53;;;;;;;3.10;2.80;;;16.30;99.90;;;;;;5035321;28;20187;-42
2022/07/12 00:26:19;;;;;;;2.80;2.60;;;16.20;99.90;;;;;;5045374;28;20190;-43
2022/07/12 00:28:45;;;;;;;2.30;2.10;;;16.20;99.90;;;;;;5033021;28;20607;-45
2022/07/12 00:31:11;;;;;;;2.73;2.37;;;16.10;99.90;;;;;;5033410;28;20269;-45
2022/07/12 00:33:37;;;;;;;3.13;2.33;;;16.10;99.90;;;;;;5033593;28;20425;-43
2022/07/12 00:36:03;;;;;;;2.10;2.00;;;16.00;99.90;;;;;;5033206;28;20229;-42
2022/07/12 00:38:28;;;;;;;3.50;2.20;;;16.00;99.90;;;;;;5032536;28;20187;-42
2022/07/12 00:40:54;;;;;;;2.00;1.90;;;15.90;99.90;;;;;;5033274;28;20504;-42
2022/07/12 00:43:20;;;;;;;2.30;2.10;;;15.80;99.90;;;;;;5033032;28;20187;-43
2022/07/12 00:45:45;;;;;;;2.30;2.10;;;15.80;99.90;;;;;;5033230;28;20245;-44
2022/07/12 00:48:11;;;;;;;2.53;2.13;;;15.80;99.90;;;;;;5032379;28;20289;-43
2022/07/12 00:50:37;;;;;;;2.10;2.00;;;15.80;99.90;;;;;;5033022;28;20220;-43
2022/07/12 00:53:03;;;;;;;2.40;2.20;;;15.70;99.90;;;;;;5032625;28;20421;-42
2022/07/12 00:55:29;;;;;;;3.70;2.63;;;15.70;99.90;;;;;;5032934;28;20304;-45
2022/07/12 00:57:55;;;;;;;2.50;2.17;;;15.60;99.90;;;;;;5032368;28;20187;-43
2022/07/12 01:00:24;;;;;;;2.23;2.00;;;15.70;99.90;;;;;;5031721;28;20433;-42
2022/07/12 01:02:51;;;;;;;3.07;2.77;;;15.70;99.90;;;;;;5032722;28;20308;-42
2022/07/12 01:05:17;;;;;;;2.50;2.30;;;15.70;99.90;;;;;;5032720;28;20532;-43
2022/07/12 01:07:44;;;;;;;2.60;2.40;;;15.70;99.90;;;;;;5031945;28;20552;-43
2022/07/12 01:10:10;;;;;;;2.80;2.60;;;15.60;99.90;;;;;;5032761;28;20193;-42
2022/07/12 01:12:36;;;;;;;2.27;2.07;;;15.60;99.90;;;;;;5038185;28;20462;-42
2022/07/12 01:15:05;;;;;;;3.20;2.57;;;15.60;99.90;;;;;;5031686;28;20499;-43
2022/07/12 01:17:31;;;;;;;1.97;1.80;;;15.50;99.90;;;;;;5031976;28;20418;-42
2022/07/12 01:19:58;;;;;;;2.40;2.20;;;15.50;99.90;;;;;;5032445;28;20432;-43
2022/07/12 01:22:33;;;;;;;3.10;2.20;;;15.40;99.90;;;;;;5045354;28;20546;-45
2022/07/12 01:25:01;;;;;;;2.50;2.30;;;15.40;99.90;;;;;;5034301;28;20517;-44
2022/07/12 01:27:28;;;;;;;3.40;2.57;;;15.40;99.90;;;;;;5051711;28;20435;-43
2022/07/12 01:29:54;;;;;;;2.50;2.30;;;15.30;99.90;;;;;;5052139;28;20473;-43
2022/07/12 01:32:26;;;;;;;2.10;2.00;;;15.30;99.90;;;;;;5051813;28;20508;-42
2022/07/12 01:34:57;;;;;;;2.23;2.03;;;15.30;99.90;;;;;;5051416;28;20462;-46
2022/07/12 01:37:25;;;;;;;2.33;2.13;;;15.30;99.90;;;;;;5051603;28;20433;-42
2022/07/12 01:39:53;;;;;;;2.27;2.00;;;15.30;99.90;;;;;;5051890;28;20520;-43
2022/07/12 01:42:20;;;;;;;2.33;2.00;;;15.30;99.90;;;;;;5052173;28;20964;-45
2022/07/12 01:44:47;;;;;;;2.30;2.10;;;15.30;99.90;;;;;;5051905;28;20987;-43
2022/07/12 01:47:13;;;;;;;3.93;2.20;;;15.30;99.90;;;;;;5050971;28;20452;-45
2022/07/12 01:49:38;;;;;;;1.77;1.67;;;15.20;99.90;;;;;;5050521;28;20475;-46
2022/07/12 01:52:05;;;;;;;2.20;2.00;;;15.20;99.90;;;;;;5052135;28;20634;-42
2022/07/12 01:54:31;;;;;;;2.70;2.50;;;15.10;99.90;;;;;;5051696;28;20193;-45
2022/07/12 01:56:57;;;;;;;2.23;2.03;;;15.20;99.90;;;;;;5051251;28;20412;-43
2022/07/12 01:59:23;;;;;;;2.30;2.10;;;15.10;99.90;;;;;;5051582;28;20489;-44
2022/07/12 02:01:48;;;;;;;2.07;1.87;;;15.10;99.90;;;;;;5051546;28;20190;-44
2022/07/12 02:04:18;;;;;;;2.33;2.13;;;15.00;99.90;;;;;;5051575;28;20430;-42
2022/07/12 02:06:45;;;;;;;2.03;1.93;;;15.00;99.90;;;;;;5051070;28;20223;-42
2022/07/12 02:09:12;;;;;;;2.30;2.10;;;14.90;99.90;;;;;;5051449;28;20907;-44
2022/07/12 02:11:38;;;;;;;2.10;2.00;;;14.90;99.90;;;;;;5051469;28;20953;-42
2022/07/12 02:14:04;;;;;;;2.40;2.20;;;14.90;99.90;;;;;;5029372;28;20421;-42
2022/07/12 02:16:30;;;;;;;2.10;2.00;;;14.80;99.90;;;;;;5031353;28;20222;-45
2022/07/12 02:18:55;;;;;;;2.57;2.37;;;14.80;99.90;;;;;;5031049;28;21266;-43
2022/07/12 02:21:21;;;;;;;2.50;2.30;;;14.80;99.90;;;;;;5042709;28;20189;-43
2022/07/12 02:23:47;;;;;;;2.53;2.33;;;14.80;99.90;;;;;;5031922;28;20182;-42
2022/07/12 02:26:12;;;;;;;1.97;1.87;;;14.70;99.90;;;;;;5043206;28;20581;-42
2022/07/12 02:28:38;;;;;;;2.47;2.27;;;14.70;99.90;;;;;;5030565;28;20194;-43
2022/07/12 02:31:05;;;;;;;2.60;2.40;;;14.70;99.90;;;;;;5030910;28;20859;-44
2022/07/12 02:33:30;;;;;;;2.43;2.23;;;14.60;99.90;;;;;;5037723;28;20190;-42
2022/07/12 02:35:56;;;;;;;2.63;2.40;;;14.70;99.90;;;;;;5050896;28;20518;-45
2022/07/12 02:38:22;;;;;;;2.73;2.40;;;14.60;99.90;;;;;;5050503;28;20194;-42
2022/07/12 02:40:53;;;;;;;2.60;2.40;;;14.60;99.90;;;;;;5050855;28;20232;-43
2022/07/12 02:43:23;;;;;;;2.50;2.30;;;14.70;99.90;;;;;;5050722;28;20591;-43
2022/07/12 02:45:50;;;;;;;3.97;2.50;;;14.60;99.90;;;;;;5050520;28;20431;-43
2022/07/12 02:48:16;;;;;;;2.37;2.17;;;14.60;99.90;;;;;;5050106;28;20493;-43
2022/07/12 02:50:43;;;;;;;2.17;2.00;;;14.60;99.90;;;;;;5050454;28;20420;-43
2022/07/12 02:53:09;;;;;;;2.33;2.17;;;14.60;99.90;;;;;;5050728;28;20204;-43
2022/07/12 02:55:36;;;;;;;3.73;2.50;;;14.50;99.90;;;;;;5050537;28;20451;-42
2022/07/12 02:58:02;;;;;;;2.47;2.27;;;14.60;99.90;;;;;;5049756;28;20412;-42
2022/07/12 03:00:29;;;;;;;2.47;2.27;;;14.50;99.90;;;;;;5050818;28;20788;-42
2022/07/12 03:02:54;;;;;;;2.30;2.10;;;14.50;99.90;;;;;;5050569;28;20963;-43
2022/07/12 03:05:20;;;;;;;2.73;2.53;;;14.50;99.90;;;;;;5050517;28;20436;-44
2022/07/12 03:07:46;;;;;;;2.27;2.07;;;14.50;99.90;;;;;;5049835;28;20567;-45
2022/07/12 03:10:11;;;;;;;3.63;2.87;;;14.50;99.90;;;;;;5050385;28;20185;-43
2022/07/12 03:12:38;;;;;;;2.90;2.70;;;14.50;99.90;;;;;;5042432;28;20203;-43
2022/07/12 03:15:05;;;;;;;2.40;2.20;;;14.40;99.90;;;;;;5029666;28;20218;-42
2022/07/12 03:17:34;;;;;;;3.17;2.97;;;14.40;99.90;;;;;;5029763;28;20429;-43
2022/07/12 03:20:01;;;;;;;2.40;2.20;;;14.40;99.90;;;;;;5030443;28;20428;-43
2022/07/12 03:22:27;;;;;;;2.77;2.57;;;14.40;99.90;;;;;;5042368;28;20429;-46
2022/07/12 03:24:53;;;;;;;2.80;2.60;;;14.50;99.90;;;;;;5031351;28;20432;-44
2022/07/12 03:27:19;;;;;;;3.07;2.87;;;14.50;99.90;;;;;;5049457;28;20190;-42
2022/07/12 03:29:44;;;;;;;3.13;2.83;;;14.40;99.90;;;;;;5050116;28;20820;-44
2022/07/12 03:32:10;;;;;;;2.93;2.73;;;14.40;99.90;;;;;;5050217;28;20193;-41
2022/07/12 03:34:36;;;;;;;3.03;2.73;;;14.40;99.90;;;;;;5050056;28;20620;-43
2022/07/12 03:37:03;;;;;;;2.93;2.70;;;14.40;99.90;;;;;;5049434;28;20177;-43
2022/07/12 03:39:30;;;;;;;2.90;2.70;;;14.40;99.90;;;;;;5049895;28;20417;-42
2022/07/12 03:41:55;;;;;;;2.90;2.70;;;14.40;99.90;;;;;;5050002;28;20416;-43
2022/07/12 03:44:21;;;;;;;2.97;2.77;;;14.30;99.90;;;;;;5049726;28;20558;-44
2022/07/12 03:46:47;;;;;;;3.10;2.80;;;14.30;99.90;;;;;;5049426;28;20196;-43
2022/07/12 03:49:13;;;;;;;3.23;2.97;;;14.30;99.90;;;;;;5049790;28;20206;-42
2022/07/12 03:51:39;;;;;;;2.83;2.63;;;14.30;99.90;;;;;;5049891;28;20196;-44
2022/07/12 03:54:07;;;;;;;3.20;2.90;;;14.30;99.90;;;;;;5049668;28;20516;-42
2022/07/12 03:59:35;;;;;;;3.43;3.13;;;14.30;99.90;;;;;;5063387;28;20432;-42
2022/07/12 04:02:02;;;;;;;3.20;2.90;;;14.30;99.90;;;;;;5037547;28;20455;-42
2022/07/12 04:04:28;;;;;;;3.57;3.27;;;14.30;99.90;;;;;;5033829;28;20201;-43
2022/07/12 04:06:53;;;;;;;4.27;3.87;;;14.30;99.90;;;;;;5033135;28;21269;-44
2022/07/12 04:09:19;;;;;;;4.37;3.73;;;14.20;99.90;;;;;;5033789;28;20500;-42
2022/07/12 04:11:45;;;;;;;4.00;3.70;;;14.30;99.90;;;;;;5039781;28;20208;-43
2022/07/12 04:14:11;;;;;;;3.87;3.47;;;14.20;99.90;;;;;;5032966;28;20649;-42
2022/07/12 04:16:36;;;;;;;3.50;3.20;;;14.20;99.90;;;;;;5033368;28;20222;-43
2022/07/12 04:19:02;;;;;;;3.77;3.47;;;14.20;99.90;;;;;;5033494;28;20252;-45
2022/07/12 04:21:28;;;;;;;3.53;3.23;;;14.30;99.90;;;;;;5046633;28;20557;-42
2022/07/12 04:23:54;;;;;;;4.17;3.87;;;14.30;99.90;;;;;;5033504;28;20429;-43
2022/07/12 04:26:20;;;;;;;4.23;3.83;;;14.20;99.90;;;;;;5046560;28;20193;-42
2022/07/12 04:28:45;;;;;;;4.33;4.00;;;14.30;99.90;;;;;;5050155;28;20602;-43
2022/07/12 04:31:11;;;;;;;4.50;4.10;;;14.30;99.90;;;;;;5046071;28;20850;-43
2022/07/12 04:33:36;;;;;;;5.17;4.77;;;14.30;99.90;;;;;;5045855;28;20190;-43
2022/07/12 04:36:02;;;;;;;4.87;4.43;;;14.30;99.90;;;;;;5033066;28;20225;-43
2022/07/12 04:38:28;;;;;;;4.73;4.43;;;14.30;99.90;;;;;;5038426;28;20220;-42
2022/07/12 04:40:54;;;;;;;4.80;4.40;;;14.40;99.90;;;;;;5051064;28;20922;-42
2022/07/12 04:43:20;;;;;;;5.77;5.27;;;14.40;99.90;;;;;;5033328;28;20566;-42
2022/07/12 04:45:45;;;;;;;6.30;5.80;;;14.50;99.90;;;;;;5033172;28;20248;-42
2022/07/12 04:48:11;;;;;;;6.67;5.93;;;14.50;99.90;;;;;;5032505;28;20214;-44
2022/07/12 04:50:37;;;;;;;6.60;6.00;;;14.60;99.90;;;;;;5033016;28;20522;-44
2022/07/12 04:53:03;;;;;;;7.00;6.30;;;14.70;99.90;;;;;;5033083;28;20452;-43
2022/07/12 04:55:29;;;;;;;5.87;5.37;;;14.70;99.90;;;;;;5032785;28;20268;-43
2022/07/12 04:57:55;;;;;;;4.60;4.23;;;14.80;99.90;;;;;;5032501;28;20179;-42
2022/07/12 05:00:21;;;;;;;9.10;4.37;;;14.90;99.90;;;;;;5032824;28;20272;-42
2022/07/12 05:02:47;;;;;;;4.37;4.07;;;15.00;99.90;;;;;;5042836;28;21118;-45
2022/07/12 05:05:14;;;;;;;5.40;4.90;;;15.10;99.90;;;;;;5038573;28;20512;-44
2022/07/12 05:07:40;;;;;;;6.10;5.50;;;15.10;99.90;;;;;;5031982;28;20194;-42
2022/07/12 05:10:06;;;;;;;6.90;6.30;;;15.30;99.90;;;;;;5032645;28;20965;-43
2022/07/12 05:12:32;;;;;;;5.17;4.77;;;15.40;99.90;;;;;;5038382;28;20505;-42
2022/07/12 05:14:58;;;;;;;5.70;5.20;;;15.50;99.90;;;;;;5031710;28;20515;-45
2022/07/12 05:17:23;;;;;;;5.73;5.23;;;15.60;99.90;;;;;;5031817;28;20573;-42
2022/07/12 05:19:49;;;;;;;5.70;5.20;;;15.80;99.90;;;;;;5045964;28;20186;-43
2022/07/12 05:22:15;;;;;;;5.90;5.40;;;15.90;99.90;;;;;;5044194;28;20190;-44
2022/07/12 05:24:40;;;;;;;5.97;5.47;;;16.00;99.90;;;;;;5032542;28;20217;-44
2022/07/12 05:27:06;;;;;;;5.40;5.00;;;16.10;99.90;;;;;;5051041;28;20190;-43
2022/07/12 05:29:32;;;;;;;5.90;5.40;;;16.20;99.90;;;;;;5052322;28;20190;-44
2022/07/12 05:31:58;;;;;;;5.50;5.10;;;16.30;99.90;;;;;;5052222;28;20687;-43
2022/07/12 05:34:23;;;;;;;6.07;5.60;;;16.30;99.90;;;;;;5052056;28;20182;-44
2022/07/12 05:36:49;;;;;;;5.83;5.23;;;16.40;99.90;;;;;;5047496;28;20482;-42
2022/07/12 05:39:15;;;;;;;6.73;6.07;;;16.60;99.90;;;;;;5045707;28;20229;-44
2022/07/12 05:41:40;;;;;;;6.30;5.80;;;16.60;99.90;;;;;;5032209;28;20193;-43
2022/07/12 05:44:06;;;;;;;6.40;5.90;;;16.70;99.90;;;;;;5032134;28;20195;-47
2022/07/12 05:46:32;;;;;;;5.70;5.20;;;16.80;99.90;;;;;;5038046;28;20594;-43
2022/07/12 05:48:57;;;;;;;5.67;5.27;;;16.90;99.90;;;;;;5051572;28;20280;-46
2022/07/12 05:54:07;;;;;;;4.47;4.17;;;17.10;99.90;;;;;;5037733;28;20661;-43
2022/07/12 05:56:33;;;;;;;4.70;4.30;;;17.30;99.90;;;;;;5042015;28;20511;-43
2022/07/12 05:58:59;;;;;;;4.00;3.70;;;17.50;99.90;;;;;;5031431;28;20187;-44
2022/07/12 06:01:24;;;;;;;3.57;3.27;;;17.70;99.90;;;;;;5031829;28;20186;-43
2022/07/12 06:03:50;;;;;;;3.77;3.47;;;17.90;99.90;;;;;;5031574;28;20187;-42
2022/07/12 06:06:16;;;;;;;3.40;3.10;;;18.10;99.90;;;;;;5031714;28;20238;-45
2022/07/12 06:08:41;;;;;;;3.60;3.30;;;18.30;99.90;;;;;;5031083;28;20251;-45
2022/07/12 06:11:07;;;;;;;4.23;3.50;;;18.50;99.90;;;;;;5032866;28;20236;-43
2022/07/12 06:13:33;;;;;;;3.30;2.87;;;18.50;99.90;;;;;;5036128;28;20700;-43
2022/07/12 06:15:59;;;;;;;4.20;3.23;;;18.60;99.90;;;;;;5031477;28;20300;-43
2022/07/12 06:18:25;;;;;;;3.63;3.43;;;18.80;99.90;;;;;;5030596;28;20552;-44
2022/07/12 06:20:51;;;;;;;3.47;3.20;;;18.90;99.90;;;;;;5034164;28;20193;-43
2022/07/12 06:23:18;;;;;;;3.30;3.00;;;19.00;99.90;;;;;;5037877;28;20811;-43
2022/07/12 06:25:45;;;;;;;3.20;3.00;;;19.00;99.90;;;;;;5046938;28;20424;-42
2022/07/12 06:28:11;;;;;;;3.27;2.97;;;19.20;99.90;;;;;;5038244;28;20428;-45
2022/07/12 06:30:37;;;;;;;3.50;3.20;;;19.30;99.90;;;;;;5043572;28;20443;-43
2022/07/12 06:33:02;;;;;;;3.80;3.50;;;19.50;99.90;;;;;;5042308;28;20437;-44
2022/07/12 06:35:28;;;;;;;3.30;3.10;;;19.50;99.90;;;;;;5043891;28;20239;-42
2022/07/12 06:37:54;;;;;;;3.13;2.93;;;19.70;99.90;;;;;;5043363;28;20851;-46
2022/07/12 06:40:20;;;;;;;3.97;3.70;;;19.80;99.90;;;;;;5044869;28;20444;-43
2022/07/12 06:42:45;;;;;;;3.90;3.60;;;19.90;99.90;;;;;;5044558;28;20191;-43
2022/07/12 06:45:11;;;;;;;3.23;3.03;;;20.00;99.90;;;;;;5038902;28;20846;-43
2022/07/12 06:47:37;;;;;;;2.30;2.20;;;20.10;99.90;;;;;;5035900;28;20286;-47
2022/07/12 06:50:03;;;;;;;2.90;2.70;;;20.20;99.90;;;;;;5042205;28;20186;-42
2022/07/12 06:52:30;;;;;;;3.40;3.00;;;20.30;99.90;;;;;;5033806;28;20621;-46
2022/07/12 06:54:56;;;;;;;3.70;3.40;;;20.40;99.90;;;;;;5030348;28;20461;-43
2022/07/12 06:57:22;;;;;;;3.97;3.67;;;20.40;99.90;;;;;;5029716;28;20985;-44
2022/07/12 06:59:48;;;;;;;4.10;3.80;;;20.40;99.90;;;;;;5039183;28;20432;-43
2022/07/12 07:02:14;;;;;;;5.37;4.87;;;20.50;99.90;;;;;;5035445;28;20187;-42
2022/07/12 07:04:40;;;;;;;3.50;3.30;;;20.50;99.90;;;;;;5030430;28;20425;-43
2022/07/12 07:07:06;;;;;;;3.20;2.90;;;20.60;99.90;;;;;;5029926;28;20477;-43
2022/07/12 07:09:33;;;;;;;4.53;3.90;;;20.70;99.90;;;;;;5030442;28;20190;-42
2022/07/12 07:12:00;;;;;;;4.83;4.43;;;20.80;99.90;;;;;;5035678;28;20421;-43
2022/07/12 07:14:26;;;;;;;4.33;3.90;;;20.80;99.90;;;;;;5028120;28;20433;-46
2022/07/12 07:16:53;;;;;;;5.97;4.70;;;20.80;99.90;;;;;;5029925;28;20489;-42
2022/07/12 07:19:19;;;;;;;4.27;3.97;;;20.80;99.90;;;;;;5030468;28;20453;-44
2022/07/12 07:21:45;;;;;;;4.13;3.83;;;20.80;99.90;;;;;;5042124;28;20470;-42
2022/07/12 07:24:10;;;;;;;3.90;3.47;;;20.90;99.90;;;;;;5032216;28;20190;-43
2022/07/12 07:26:37;;;;;;;3.47;3.27;;;21.00;99.90;;;;;;5035664;28;20205;-44
2022/07/12 07:31:47;;;;;;;4.20;3.10;;;21.10;99.90;;;;;;5049957;28;20436;-43
2022/07/12 07:34:13;;;;;;;5.47;2.97;;;21.20;99.90;;;;;;5050056;28;20444;-43
2022/07/12 07:36:39;;;;;;;3.93;2.70;;;21.20;99.90;;;;;;5048112;28;20335;-43
2022/07/12 07:39:04;;;;;;;3.50;3.30;;;21.30;99.90;;;;;;5049812;28;20620;-44
2022/07/12 07:41:30;;;;;;;6.50;2.70;;;21.30;99.90;;;;;;5049919;28;20181;-44
2022/07/12 07:43:56;;;;;;;4.30;3.03;;;21.30;99.90;;;;;;5041437;28;20202;-44
2022/07/12 07:46:22;;;;;;;3.50;3.20;;;21.40;99.90;;;;;;5048449;28;20289;-43
2022/07/12 07:48:48;;;;;;;4.93;2.90;;;21.50;99.90;;;;;;5030615;28;20218;-43
2022/07/12 07:51:13;;;;;;;4.10;3.10;;;21.50;99.90;;;;;;5029907;28;20451;-44
2022/07/12 07:53:39;;;;;;;3.20;2.80;;;21.60;99.90;;;;;;5030337;28;20190;-46
2022/07/12 07:56:05;;;;;;;2.77;2.57;;;21.70;99.90;;;;;;5029690;28;20577;-43
2022/07/12 07:58:31;;;;;;;4.43;2.90;;;21.80;99.90;;;;;;5029409;28;20197;-44
2022/07/12 08:00:56;;;;;;;2.57;2.37;;;21.80;99.90;;;;;;5029924;28;20198;-43
2022/07/12 08:03:22;;;;;;;3.57;3.27;;;21.90;99.90;;;;;;5029971;28;20190;-44
2022/07/12 08:05:50;;;;;;;3.23;2.93;;;21.90;99.90;;;;;;5029839;28;20214;-43
2022/07/12 08:08:17;;;;;;;3.90;2.13;;;21.80;99.90;;;;;;5029084;28;20190;-49
2022/07/12 08:10:43;;;;;;;6.40;2.20;;;21.80;99.90;;;;;;5029889;28;20429;-43
2022/07/12 08:13:09;;;;;;;3.07;2.57;;;21.70;99.90;;;;;;5035880;28;20970;-44
2022/07/12 08:15:35;;;;;;;2.80;2.60;;;21.70;99.90;;;;;;5029011;28;20472;-43
2022/07/12 08:18:00;;;;;;;2.53;1.93;;;21.50;99.90;;;;;;5027761;28;20725;-47
2022/07/12 08:20:26;;;;;;;7.47;1.90;;;21.50;99.90;;;;;;5029771;28;20436;-44
2022/07/12 08:22:52;;;;;;;2.50;1.87;;;21.60;99.90;;;;;;5043087;28;20179;-43
2022/07/12 08:25:18;;;;;;;2.40;1.97;;;21.60;99.90;;;;;;5029746;28;20435;-44
2022/07/12 08:27:43;;;;;;;2.47;1.73;;;21.60;99.90;;;;;;5029204;28;20680;-43
2022/07/12 08:30:10;;;;;;;2.70;2.37;;;21.60;99.90;;;;;;5048686;28;20190;-46
2022/07/12 08:32:37;;;;;;;4.10;2.60;;;21.60;99.90;;;;;;5049434;28;20194;-43
2022/07/12 08:35:03;;;;;;;2.30;2.00;;;21.60;99.90;;;;;;5049358;28;20567;-43
2022/07/12 08:37:29;;;;;;;2.77;1.47;;;21.70;99.90;;;;;;5048646;28;20432;-44
2022/07/12 08:39:55;;;;;;;2.60;1.60;;;21.80;99.90;;;;;;5049439;28;20831;-43
2022/07/12 08:42:20;;;;;;;4.33;2.47;;;21.80;99.90;;;;;;5050154;28;20364;-44
2022/07/12 08:44:56;;;;;;;3.90;2.20;;;22.00;99.90;;;;;;5051848;28;20645;-43
2022/07/12 08:47:22;;;;;;;2.63;2.20;;;22.00;99.90;;;;;;5052469;28;20177;-43
2022/07/12 08:50:10;;;;;;;2.07;1.97;;;22.20;99.90;;;;;;5053101;28;20416;-43
2022/07/12 08:52:44;;;;;;;2.10;1.90;;;22.20;99.90;;;;;;5052822;28;20193;-45
2022/07/12 08:55:21;;;;;;;3.53;2.37;;;22.30;99.90;;;;;;5053054;28;20470;-43
2022/07/12 08:57:48;;;;;;;1.80;1.60;;;22.30;99.90;;;;;;5052169;28;20859;-46
2022/07/12 09:00:14;;;;;;;1.80;1.70;;;22.40;99.90;;;;;;5053015;28;20800;-44
2022/07/12 09:02:45;;;;;;;3.77;2.07;;;22.50;99.90;;;;;;5052699;28;20791;-45
2022/07/12 09:05:11;;;;;;;2.03;1.60;;;22.60;99.90;;;;;;5051490;28;20432;-45
2022/07/12 09:07:37;;;;;;;2.37;2.20;;;22.80;99.90;;;;;;5052212;28;20903;-43
2022/07/12 09:10:04;;;;;;;2.40;2.20;;;22.80;99.90;;;;;;5052742;28;20428;-44
2022/07/12 09:12:30;;;;;;;2.40;2.27;;;22.90;99.90;;;;;;5046611;28;20433;-43
2022/07/12 09:15:20;;;;;;;2.83;2.10;;;23.00;99.90;;;;;;5030977;28;20460;-44
2022/07/12 09:17:58;;;;;;;4.87;2.60;;;23.10;99.90;;;;;;5041062;28;20280;-48
2022/07/12 09:20:25;;;;;;;2.40;2.10;;;23.20;99.90;;;;;;5052443;28;20454;-49
2022/07/12 09:22:56;;;;;;;2.23;2.03;;;23.20;99.90;;;;;;5048772;28;20436;-43
2022/07/12 09:25:22;;;;;;;4.60;2.50;;;23.30;99.90;;;;;;5037152;28;20774;-44
2022/07/12 09:27:58;;;;;;;2.47;2.27;;;23.30;99.90;;;;;;5038739;28;21019;-43
2022/07/12 09:30:27;;;;;;;2.37;2.27;;;23.30;99.90;;;;;;5032417;28;20433;-44
2022/07/12 09:36:10;;;;;;;2.00;1.80;;;23.10;99.90;;;;;;5031978;28;20801;-43
2022/07/12 09:38:37;;;;;;;1.83;1.73;;;23.20;99.90;;;;;;5031454;28;20470;-45
2022/07/12 09:41:07;;;;;;;2.43;2.13;;;23.30;99.90;;;;;;5032042;28;20787;-43
2022/07/12 09:43:33;;;;;;;1.83;1.73;;;23.40;99.90;;;;;;5032315;28;20421;-43
2022/07/12 09:45:59;;;;;;;4.80;1.73;;;23.50;99.90;;;;;;5031998;28;20425;-44
2022/07/12 09:48:28;;;;;;;2.00;1.90;;;23.60;99.90;;;;;;5030095;28;20425;-44
2022/07/12 09:50:57;;;;;;;1.73;1.63;;;23.60;99.90;;;;;;5031918;28;20437;-43
2022/07/12 09:53:33;;;;;;;2.77;2.20;;;23.70;99.90;;;;;;5031434;28;20433;-43
2022/07/12 09:56:03;;;;;;;2.30;2.10;;;23.80;99.90;;;;;;5031469;28;20476;-44
2022/07/12 09:58:39;;;;;;;1.60;1.50;;;23.90;99.90;;;;;;5031446;28;20562;-43
2022/07/12 10:01:06;;;;;;;1.80;1.70;;;24.00;99.90;;;;;;5030418;28;20428;-43
2022/07/12 10:03:34;;;;;;;3.97;1.80;;;24.10;99.90;;;;;;5031891;28;20437;-43
2022/07/12 10:06:02;;;;;;;1.63;1.53;;;24.10;99.90;;;;;;5038467;28;20463;-45
2022/07/12 10:08:30;;;;;;;2.10;2.00;;;24.20;99.90;;;;;;5051052;28;20456;-45
2022/07/12 10:10:57;;;;;;;1.83;1.73;;;24.20;99.90;;;;;;5051530;28;20432;-43
2022/07/12 10:13:23;;;;;;;1.80;1.70;;;24.20;99.90;;;;;;5035599;28;20466;-45
2022/07/12 10:15:50;;;;;;;2.90;1.67;;;24.20;99.90;;;;;;5031599;28;20559;-43
2022/07/12 10:18:19;;;;;;;4.30;1.93;;;24.40;99.90;;;;;;5030933;28;20461;-44
2022/07/12 10:20:49;;;;;;;2.00;1.50;;;24.50;99.90;;;;;;5032540;28;21099;-43
2022/07/12 10:23:30;;;;;;;2.40;1.70;;;24.60;99.90;;;;;;5040666;28;20409;-43
2022/07/12 10:25:55;;;;;;;1.67;1.57;;;24.70;99.90;;;;;;5040649;28;20775;-45
2022/07/12 10:28:21;;;;;;;3.60;1.90;;;24.70;99.90;;;;;;5050727;28;20459;-43
2022/07/12 10:30:52;;;;;;;2.53;2.20;;;24.80;99.90;;;;;;5051121;28;20193;-45
2022/07/12 10:33:22;;;;;;;2.37;1.60;;;24.80;99.90;;;;;;5051220;28;20185;-45
2022/07/12 10:36:08;;;;;;;1.37;1.27;;;24.80;99.90;;;;;;5051038;28;20822;-45
2022/07/12 10:38:35;;;;;;;4.13;1.60;;;24.80;99.90;;;;;;5050365;28;21631;-46
2022/07/12 10:41:21;;;;;;;1.80;1.43;;;24.90;99.90;;;;;;5050850;28;20603;-46
2022/07/12 10:44:06;;;;;;;1.43;1.33;;;24.90;99.90;;;;;;5050957;28;20428;-44
2022/07/12 10:46:34;;;;;;;1.67;1.57;;;25.00;99.90;;;;;;5050579;28;20776;-46
2022/07/12 10:49:28;;;;;;;1.50;1.40;;;24.90;99.90;;;;;;5050502;28;20428;-45
2022/07/12 10:52:11;;;;;;;2.23;1.60;;;25.00;99.90;;;;;;5050712;28;20519;-43
2022/07/12 10:55:08;;;;;;;1.60;1.20;;;25.00;99.90;;;;;;5050942;28;20455;-43
2022/07/12 10:57:43;;;;;;;1.90;1.50;;;25.10;99.90;;;;;;5049797;28;20430;-45
2022/07/12 11:00:11;;;;;;;1.47;1.37;;;25.10;99.70;;;;;;5050873;28;21140;-45
2022/07/12 11:02:37;;;;;;;1.77;1.13;;;25.10;99.90;;;;;;5050538;28;20427;-43
2022/07/12 11:05:04;;;;;;;1.33;1.23;;;25.20;99.40;;;;;;5050310;28;20420;-45
2022/07/12 11:07:30;;;;;;;1.50;1.40;;;25.10;99.30;;;;;;5049599;28;20444;-43
2022/07/12 11:09:56;;;;;;;1.53;1.23;;;25.00;99.60;;;;;;5049315;28;20424;-44
2022/07/12 11:12:29;;;;;;;1.07;0.97;;;25.10;99.60;;;;;;5045131;28;20548;-45
2022/07/12 11:14:56;;;;;;;1.10;1.00;;;25.10;99.90;;;;;;5029037;28;20451;-43
2022/07/12 11:17:32;;;;;;;1.40;1.30;;;25.20;99.90;;;;;;5029804;28;21211;-44
2022/07/12 11:20:10;;;;;;;1.00;0.90;;;25.40;99.90;;;;;;5030331;28;20425;-43
2022/07/12 11:22:38;;;;;;;2.40;1.00;;;25.50;99.00;;;;;;5043452;28;20519;-43
2022/07/12 11:25:06;;;;;;;1.67;1.10;;;25.40;98.40;;;;;;5032804;28;20429;-44
2022/07/12 11:27:33;;;;;;;1.33;1.23;;;25.50;98.90;;;;;;5049465;28;20431;-43
2022/07/12 11:29:59;;;;;;;1.30;1.20;;;25.50;98.30;;;;;;5050217;28;20519;-42
2022/07/12 11:32:47;;;;;;;1.20;1.00;;;25.50;98.30;;;;;;5049974;28;20432;-43
2022/07/12 11:35:20;;;;;;;1.13;1.00;;;25.50;99.10;;;;;;5050205;28;20463;-44
2022/07/12 11:37:53;;;;;;;1.97;0.90;;;25.60;98.80;;;;;;5049355;28;20771;-43
2022/07/12 11:40:27;;;;;;;1.20;1.10;;;25.60;98.10;;;;;;5050087;28;20435;-44
2022/07/12 11:42:58;;;;;;;1.93;1.00;;;25.70;99.50;;;;;;5048541;28;20937;-43
2022/07/12 11:45:25;;;;;;;2.30;1.00;;;25.80;98.10;;;;;;5049969;28;20443;-43
2022/07/12 11:47:51;;;;;;;1.50;0.80;;;25.80;97.00;;;;;;5047905;28;20818;-44
2022/07/12 11:50:19;;;;;;;1.20;1.10;;;25.80;96.60;;;;;;5049864;28;20528;-43
2022/07/12 11:52:45;;;;;;;1.47;1.07;;;25.80;96.40;;;;;;5049878;28;20787;-43
2022/07/12 11:55:10;;;;;;;1.43;1.07;;;25.80;97.40;;;;;;5049677;28;20464;-45
2022/07/12 11:57:36;;;;;;;1.23;1.13;;;25.90;99.50;;;;;;5048996;28;20942;-43
2022/07/12 12:00:19;;;;;;;1.30;1.20;;;26.00;98.90;;;;;;5049913;28;20773;-43
2022/07/12 12:02:46;;;;;;;1.27;1.17;;;26.10;97.40;;;;;;5049967;28;20262;-43
2022/07/12 12:05:12;;;;;;;1.40;1.30;;;26.10;97.70;;;;;;5049505;28;20428;-47
2022/07/12 12:07:38;;;;;;;1.40;1.30;;;26.20;96.80;;;;;;5049216;28;20466;-43
2022/07/12 12:10:11;;;;;;;1.40;1.30;;;26.20;96.00;;;;;;5049317;28;20420;-44
2022/07/12 12:12:52;;;;;;;1.10;1.10;;;26.20;96.00;;;;;;5041851;28;20197;-45
2022/07/12 12:15:19;;;;;;;1.00;0.90;;;26.20;96.80;;;;;;5028038;28;20460;-45
2022/07/12 12:18:02;;;;;;;2.07;1.30;;;26.30;98.40;;;;;;5030721;28;20778;-43
2022/07/12 12:20:27;;;;;;;1.30;1.20;;;26.30;98.20;;;;;;5033315;28;20519;-44
2022/07/12 12:22:55;;;;;;;1.20;1.10;;;26.40;97.80;;;;;;5046385;28;20509;-45
2022/07/12 12:25:22;;;;;;;1.83;0.90;;;26.50;95.50;;;;;;5038276;28;20195;-44
2022/07/12 12:28:01;;;;;;;1.07;0.80;;;26.50;93.60;;;;;;5052857;28;21078;-44
2022/07/12 12:30:48;;;;;;;1.83;1.00;;;26.50;93.70;;;;;;5053485;28;20503;-43
2022/07/12 12:33:32;;;;;;;1.73;1.00;;;26.60;92.80;;;;;;5053356;28;20980;-43
2022/07/12 12:36:11;;;;;;;1.27;0.90;;;26.60;94.00;;;;;;5053179;28;20468;-44
2022/07/12 12:38:37;;;;;;;1.63;0.70;;;26.70;93.70;;;;;;5052870;28;20431;-44
2022/07/12 12:41:04;;;;;;;1.53;1.00;;;26.70;88.90;;;;;;5053149;28;20416;-43
2022/07/12 12:43:31;;;;;;;1.53;0.90;;;26.60;87.40;;;;;;5053138;28;20220;-42
2022/07/12 12:45:57;;;;;;;0.90;0.73;;;26.50;90.60;;;;;;5053133;28;20428;-42
2022/07/12 12:48:25;;;;;;;1.23;0.73;;;26.40;88.10;;;;;;5052321;28;20446;-43
2022/07/12 12:51:18;;;;;;;0.90;0.77;;;26.40;87.50;;;;;;5052957;28;20428;-43
2022/07/12 12:53:55;;;;;;;0.93;0.83;;;26.30;87.40;;;;;;5050375;28;20478;-43
2022/07/12 12:56:20;;;;;;;0.80;0.80;;;26.20;87.60;;;;;;5052862;28;20513;-42
2022/07/12 12:58:48;;;;;;;0.80;0.70;;;26.20;85.40;;;;;;5051128;28;20428;-44
2022/07/12 13:01:14;;;;;;;0.97;0.83;;;26.30;89.00;;;;;;5052937;28;20192;-43
2022/07/12 13:03:40;;;;;;;1.00;0.83;;;26.30;88.40;;;;;;5053050;28;21065;-42